sensor_id;sensor_type;location;lat;lon;timestamp;P1;durP1;ratioP1;P2;durP2;ratioP2
15944;SDS011;30172;48.832;8.732;2022-12-16T00:01:21;50.97;;;27.73;;
15944;SDS011;30172;48.832;8.732;2022-12-16T00:03:50;50.77;;;28.47;;
15944;SDS011;30172;48.832;8.732;2022-12-16T00:06:16;48.70;;;26.23;;
15944;SDS011;30172;48.832;8.732;2022-12-16T00:08:42;42.03;;;24.77;;
15944;SDS011;30172;48.832;8.732;2022-12-16T00:11:07;47.23;;;25.97;;
15944;SDS011;30172;48.832;8.732;2022-12-16T00:13:34;46.30;;;26.37;;
15944;SDS011;30172;48.832;8.732;2022-12-16T00:16:07;48.57;;;26.80;;
15944;SDS011;30172;48.832;8.732;2022-12-16T00:18:34;45.37;;;24.93;;
15944;SDS011;30172;48.832;8.732;2022-12-16T00:20:59;48.30;;;25.53;;
15944;SDS011;30172;48.832;8.732;2022-12-16T00:23:25;46.50;;;25.20;;
15944;SDS011;30172;48.832;8.732;2022-12-16T00:25:51;41.20;;;23.63;;
15944;SDS011;30172;48.832;8.732;2022-12-16T00:28:17;46.87;;;26.90;;
15944;SDS011;30172;48.832;8.732;2022-12-16T00:30:42;48.63;;;25.80;;
15944;SDS011;30172;48.832;8.732;2022-12-16T00:33:08;47.90;;;26.53;;
15944;SDS011;30172;48.832;8.732;2022-12-16T00:35:35;53.67;;;27.77;;
15944;SDS011;30172;48.832;8.732;2022-12-16T00:38:00;43.87;;;24.47;;
15944;SDS011;30172;48.832;8.732;2022-12-16T00:40:25;46.30;;;26.13;;
15944;SDS011;30172;48.832;8.732;2022-12-16T00:42:51;50.47;;;27.07;;
15944;SDS011;30172;48.832;8.732;2022-12-16T00:45:16;47.03;;;26.83;;
15944;SDS011;30172;48.832;8.732;2022-12-16T00:47:41;52.10;;;28.03;;
15944;SDS011;30172;48.832;8.732;2022-12-16T00:50:07;41.87;;;23.93;;
15944;SDS011;30172;48.832;8.732;2022-12-16T00:52:33;53.80;;;25.53;;
15944;SDS011;30172;48.832;8.732;2022-12-16T00:54:58;42.83;;;24.43;;
15944;SDS011;30172;48.832;8.732;2022-12-16T00:57:24;47.30;;;25.93;;
15944;SDS011;30172;48.832;8.732;2022-12-16T00:59:49;42.83;;;25.23;;
15944;SDS011;30172;48.832;8.732;2022-12-16T01:02:15;50.23;;;25.50;;
15944;SDS011;30172;48.832;8.732;2022-12-16T01:04:40;46.20;;;24.23;;
15944;SDS011;30172;48.832;8.732;2022-12-16T01:07:05;45.43;;;24.83;;
15944;SDS011;30172;48.832;8.732;2022-12-16T01:09:31;44.57;;;24.67;;
15944;SDS011;30172;48.832;8.732;2022-12-16T01:11:56;44.03;;;23.63;;
15944;SDS011;30172;48.832;8.732;2022-12-16T01:14:21;46.93;;;25.60;;
15944;SDS011;30172;48.832;8.732;2022-12-16T01:16:47;44.30;;;24.97;;
15944;SDS011;30172;48.832;8.732;2022-12-16T01:19:12;42.03;;;24.07;;
15944;SDS011;30172;48.832;8.732;2022-12-16T01:21:37;42.60;;;23.30;;
15944;SDS011;30172;48.832;8.732;2022-12-16T01:24:03;43.93;;;23.27;;
15944;SDS011;30172;48.832;8.732;2022-12-16T01:26:28;43.30;;;24.57;;
15944;SDS011;30172;48.832;8.732;2022-12-16T01:28:55;42.17;;;23.73;;
15944;SDS011;30172;48.832;8.732;2022-12-16T01:31:21;42.57;;;23.90;;
15944;SDS011;30172;48.832;8.732;2022-12-16T01:33:47;44.23;;;24.77;;
15944;SDS011;30172;48.832;8.732;2022-12-16T01:36:12;44.50;;;24.23;;
15944;SDS011;30172;48.832;8.732;2022-12-16T01:38:37;42.00;;;23.00;;
15944;SDS011;30172;48.832;8.732;2022-12-16T01:41:06;38.77;;;23.27;;
15944;SDS011;30172;48.832;8.732;2022-12-16T01:43:32;39.17;;;22.53;;
15944;SDS011;30172;48.832;8.732;2022-12-16T01:46:07;42.17;;;22.47;;
15944;SDS011;30172;48.832;8.732;2022-12-16T01:48:43;41.60;;;23.07;;
15944;SDS011;30172;48.832;8.732;2022-12-16T01:51:20;45.30;;;23.97;;
15944;SDS011;30172;48.832;8.732;2022-12-16T01:53:49;43.60;;;24.57;;
15944;SDS011;30172;48.832;8.732;2022-12-16T01:56:17;42.87;;;24.23;;
15944;SDS011;30172;48.832;8.732;2022-12-16T01:58:43;43.80;;;24.80;;
15944;SDS011;30172;48.832;8.732;2022-12-16T02:01:09;45.03;;;24.67;;
15944;SDS011;30172;48.832;8.732;2022-12-16T02:03:35;45.67;;;24.07;;
15944;SDS011;30172;48.832;8.732;2022-12-16T02:06:02;43.67;;;24.70;;
15944;SDS011;30172;48.832;8.732;2022-12-16T02:08:28;45.10;;;26.20;;
15944;SDS011;30172;48.832;8.732;2022-12-16T02:11:19;42.30;;;23.20;;
15944;SDS011;30172;48.832;8.732;2022-12-16T02:16:42;42.03;;;24.27;;
15944;SDS011;30172;48.832;8.732;2022-12-16T02:35:52;39.27;;;20.87;;
15944;SDS011;30172;48.832;8.732;2022-12-16T02:38:26;37.43;;;21.83;;
15944;SDS011;30172;48.832;8.732;2022-12-16T02:40:56;37.90;;;21.03;;
15944;SDS011;30172;48.832;8.732;2022-12-16T02:43:31;35.30;;;22.03;;
15944;SDS011;30172;48.832;8.732;2022-12-16T02:46:14;39.53;;;22.00;;
15944;SDS011;30172;48.832;8.732;2022-12-16T02:48:41;39.47;;;22.53;;
15944;SDS011;30172;48.832;8.732;2022-12-16T02:51:06;35.83;;;21.53;;
15944;SDS011;30172;48.832;8.732;2022-12-16T02:53:33;37.07;;;22.57;;
15944;SDS011;30172;48.832;8.732;2022-12-16T02:58:43;39.17;;;22.17;;
15944;SDS011;30172;48.832;8.732;2022-12-16T03:01:28;37.40;;;21.57;;
15944;SDS011;30172;48.832;8.732;2022-12-16T03:04:05;34.43;;;20.63;;
15944;SDS011;30172;48.832;8.732;2022-12-16T03:06:55;40.87;;;21.67;;
15944;SDS011;30172;48.832;8.732;2022-12-16T03:09:23;36.00;;;21.03;;
15944;SDS011;30172;48.832;8.732;2022-12-16T03:11:51;36.07;;;21.57;;
15944;SDS011;30172;48.832;8.732;2022-12-16T03:14:18;36.93;;;21.30;;
15944;SDS011;30172;48.832;8.732;2022-12-16T03:16:44;35.30;;;21.00;;
15944;SDS011;30172;48.832;8.732;2022-12-16T03:19:11;39.47;;;21.37;;
15944;SDS011;30172;48.832;8.732;2022-12-16T03:21:40;38.27;;;20.90;;
15944;SDS011;30172;48.832;8.732;2022-12-16T03:24:09;35.47;;;21.27;;
15944;SDS011;30172;48.832;8.732;2022-12-16T03:26:38;34.97;;;19.90;;
15944;SDS011;30172;48.832;8.732;2022-12-16T03:29:10;33.67;;;18.93;;
15944;SDS011;30172;48.832;8.732;2022-12-16T03:31:47;32.77;;;20.07;;
15944;SDS011;30172;48.832;8.732;2022-12-16T03:36:43;35.63;;;20.03;;
15944;SDS011;30172;48.832;8.732;2022-12-16T03:39:12;35.03;;;19.97;;
15944;SDS011;30172;48.832;8.732;2022-12-16T03:41:38;33.33;;;20.33;;
15944;SDS011;30172;48.832;8.732;2022-12-16T03:44:04;36.47;;;19.93;;
15944;SDS011;30172;48.832;8.732;2022-12-16T03:46:31;33.80;;;19.50;;
15944;SDS011;30172;48.832;8.732;2022-12-16T03:48:57;29.13;;;19.73;;
15944;SDS011;30172;48.832;8.732;2022-12-16T03:51:22;34.43;;;20.53;;
15944;SDS011;30172;48.832;8.732;2022-12-16T03:53:48;30.30;;;18.50;;
15944;SDS011;30172;48.832;8.732;2022-12-16T03:56:13;31.53;;;19.33;;
15944;SDS011;30172;48.832;8.732;2022-12-16T03:58:39;31.90;;;19.83;;
15944;SDS011;30172;48.832;8.732;2022-12-16T04:01:08;32.43;;;18.43;;
15944;SDS011;30172;48.832;8.732;2022-12-16T04:03:34;34.63;;;19.67;;
15944;SDS011;30172;48.832;8.732;2022-12-16T04:06:00;35.23;;;20.23;;
15944;SDS011;30172;48.832;8.732;2022-12-16T04:08:26;39.00;;;21.80;;
15944;SDS011;30172;48.832;8.732;2022-12-16T04:10:52;34.30;;;20.13;;
15944;SDS011;30172;48.832;8.732;2022-12-16T04:13:36;32.33;;;18.77;;
15944;SDS011;30172;48.832;8.732;2022-12-16T04:16:20;32.77;;;18.60;;
15944;SDS011;30172;48.832;8.732;2022-12-16T04:19:04;33.43;;;20.40;;
15944;SDS011;30172;48.832;8.732;2022-12-16T04:21:48;36.20;;;19.07;;
15944;SDS011;30172;48.832;8.732;2022-12-16T04:24:32;29.93;;;17.53;;
15944;SDS011;30172;48.832;8.732;2022-12-16T04:26:57;28.73;;;17.50;;
15944;SDS011;30172;48.832;8.732;2022-12-16T04:29:42;28.50;;;17.83;;
15944;SDS011;30172;48.832;8.732;2022-12-16T04:32:26;28.10;;;15.37;;
15944;SDS011;30172;48.832;8.732;2022-12-16T04:34:51;27.13;;;15.17;;
15944;SDS011;30172;48.832;8.732;2022-12-16T04:37:17;26.57;;;14.20;;
15944;SDS011;30172;48.832;8.732;2022-12-16T04:40:02;29.27;;;17.67;;
15944;SDS011;30172;48.832;8.732;2022-12-16T04:42:46;30.57;;;17.50;;
15944;SDS011;30172;48.832;8.732;2022-12-16T04:45:30;30.20;;;17.90;;
15944;SDS011;30172;48.832;8.732;2022-12-16T04:48:14;32.43;;;20.27;;
15944;SDS011;30172;48.832;8.732;2022-12-16T04:50:58;34.97;;;19.77;;
15944;SDS011;30172;48.832;8.732;2022-12-16T04:53:42;30.63;;;19.53;;
15944;SDS011;30172;48.832;8.732;2022-12-16T04:56:26;27.53;;;16.97;;
15944;SDS011;30172;48.832;8.732;2022-12-16T04:59:10;33.07;;;19.37;;
15944;SDS011;30172;48.832;8.732;2022-12-16T05:01:54;31.67;;;17.73;;
15944;SDS011;30172;48.832;8.732;2022-12-16T05:04:55;31.90;;;17.53;;
15944;SDS011;30172;48.832;8.732;2022-12-16T05:07:38;32.33;;;18.23;;
15944;SDS011;30172;48.832;8.732;2022-12-16T05:10:22;28.23;;;17.43;;
15944;SDS011;30172;48.832;8.732;2022-12-16T05:13:06;29.50;;;18.20;;
15944;SDS011;30172;48.832;8.732;2022-12-16T05:15:50;29.93;;;18.67;;
15944;SDS011;30172;48.832;8.732;2022-12-16T05:18:34;29.07;;;17.47;;
15944;SDS011;30172;48.832;8.732;2022-12-16T05:21:18;33.87;;;18.57;;
15944;SDS011;30172;48.832;8.732;2022-12-16T05:24:02;70.40;;;35.40;;
15944;SDS011;30172;48.832;8.732;2022-12-16T05:26:46;43.40;;;23.87;;
15944;SDS011;30172;48.832;8.732;2022-12-16T05:29:30;36.57;;;21.07;;
15944;SDS011;30172;48.832;8.732;2022-12-16T05:32:14;30.70;;;19.07;;
15944;SDS011;30172;48.832;8.732;2022-12-16T05:34:57;35.67;;;19.93;;
15944;SDS011;30172;48.832;8.732;2022-12-16T05:37:42;41.23;;;21.83;;
15944;SDS011;30172;48.832;8.732;2022-12-16T05:40:26;33.67;;;20.97;;
15944;SDS011;30172;48.832;8.732;2022-12-16T05:43:10;29.20;;;17.50;;
15944;SDS011;30172;48.832;8.732;2022-12-16T05:45:53;32.43;;;20.73;;
15944;SDS011;30172;48.832;8.732;2022-12-16T05:48:37;40.50;;;23.43;;
15944;SDS011;30172;48.832;8.732;2022-12-16T05:51:21;32.13;;;20.20;;
15944;SDS011;30172;48.832;8.732;2022-12-16T05:54:05;31.40;;;19.20;;
15944;SDS011;30172;48.832;8.732;2022-12-16T05:56:49;29.30;;;19.27;;
15944;SDS011;30172;48.832;8.732;2022-12-16T05:59:33;34.63;;;20.20;;
15944;SDS011;30172;48.832;8.732;2022-12-16T06:02:17;36.50;;;20.40;;
15944;SDS011;30172;48.832;8.732;2022-12-16T06:05:01;30.90;;;19.80;;
15944;SDS011;30172;48.832;8.732;2022-12-16T06:07:52;33.37;;;20.57;;
15944;SDS011;30172;48.832;8.732;2022-12-16T06:10:36;33.53;;;20.33;;
15944;SDS011;30172;48.832;8.732;2022-12-16T06:13:20;40.83;;;22.90;;
15944;SDS011;30172;48.832;8.732;2022-12-16T06:16:04;43.43;;;23.83;;
15944;SDS011;30172;48.832;8.732;2022-12-16T06:18:48;40.00;;;22.63;;
15944;SDS011;30172;48.832;8.732;2022-12-16T06:21:32;36.57;;;20.57;;
15944;SDS011;30172;48.832;8.732;2022-12-16T06:24:16;33.63;;;20.70;;
15944;SDS011;30172;48.832;8.732;2022-12-16T06:27:00;36.97;;;21.10;;
15944;SDS011;30172;48.832;8.732;2022-12-16T06:29:44;33.30;;;20.30;;
15944;SDS011;30172;48.832;8.732;2022-12-16T06:32:28;41.37;;;23.13;;
15944;SDS011;30172;48.832;8.732;2022-12-16T06:35:12;39.70;;;22.30;;
15944;SDS011;30172;48.832;8.732;2022-12-16T06:37:56;41.87;;;23.83;;
15944;SDS011;30172;48.832;8.732;2022-12-16T06:40:40;42.70;;;25.13;;
15944;SDS011;30172;48.832;8.732;2022-12-16T06:43:24;42.67;;;23.93;;
15944;SDS011;30172;48.832;8.732;2022-12-16T06:46:08;46.80;;;25.53;;
15944;SDS011;30172;48.832;8.732;2022-12-16T06:48:52;41.27;;;23.03;;
15944;SDS011;30172;48.832;8.732;2022-12-16T06:51:43;43.87;;;24.43;;
15944;SDS011;30172;48.832;8.732;2022-12-16T06:54:27;39.90;;;24.53;;
15944;SDS011;30172;48.832;8.732;2022-12-16T06:57:11;44.33;;;23.83;;
15944;SDS011;30172;48.832;8.732;2022-12-16T06:59:55;44.63;;;26.40;;
15944;SDS011;30172;48.832;8.732;2022-12-16T07:02:39;46.83;;;25.53;;
15944;SDS011;30172;48.832;8.732;2022-12-16T07:05:23;46.67;;;25.43;;
15944;SDS011;30172;48.832;8.732;2022-12-16T07:08:19;47.07;;;25.53;;
15944;SDS011;30172;48.832;8.732;2022-12-16T07:11:03;44.20;;;25.40;;
15944;SDS011;30172;48.832;8.732;2022-12-16T07:13:47;44.90;;;25.30;;
15944;SDS011;30172;48.832;8.732;2022-12-16T07:16:33;46.00;;;25.20;;
15944;SDS011;30172;48.832;8.732;2022-12-16T07:19:18;44.70;;;23.93;;
15944;SDS011;30172;48.832;8.732;2022-12-16T07:22:02;43.57;;;24.03;;
15944;SDS011;30172;48.832;8.732;2022-12-16T07:24:46;42.33;;;24.77;;
15944;SDS011;30172;48.832;8.732;2022-12-16T07:27:31;45.17;;;24.47;;
15944;SDS011;30172;48.832;8.732;2022-12-16T07:30:15;45.33;;;24.47;;
15944;SDS011;30172;48.832;8.732;2022-12-16T07:32:59;53.80;;;27.47;;
15944;SDS011;30172;48.832;8.732;2022-12-16T07:35:43;47.33;;;26.17;;
15944;SDS011;30172;48.832;8.732;2022-12-16T07:38:27;47.37;;;24.73;;
15944;SDS011;30172;48.832;8.732;2022-12-16T07:41:11;47.57;;;24.93;;
15944;SDS011;30172;48.832;8.732;2022-12-16T07:43:55;40.33;;;22.53;;
15944;SDS011;30172;48.832;8.732;2022-12-16T07:46:39;39.90;;;21.93;;
15944;SDS011;30172;48.832;8.732;2022-12-16T07:49:23;38.03;;;20.97;;
15944;SDS011;30172;48.832;8.732;2022-12-16T07:52:07;34.40;;;20.33;;
15944;SDS011;30172;48.832;8.732;2022-12-16T07:54:51;33.33;;;19.53;;
15944;SDS011;30172;48.832;8.732;2022-12-16T07:57:35;35.13;;;19.33;;
15944;SDS011;30172;48.832;8.732;2022-12-16T08:00:19;37.10;;;20.63;;
15944;SDS011;30172;48.832;8.732;2022-12-16T08:03:03;36.03;;;20.83;;
15944;SDS011;30172;48.832;8.732;2022-12-16T08:05:47;31.03;;;17.80;;
15944;SDS011;30172;48.832;8.732;2022-12-16T08:08:31;33.43;;;19.03;;
15944;SDS011;30172;48.832;8.732;2022-12-16T08:11:15;29.60;;;18.17;;
15944;SDS011;30172;48.832;8.732;2022-12-16T08:13:59;32.50;;;17.93;;
15944;SDS011;30172;48.832;8.732;2022-12-16T08:16:43;29.70;;;19.40;;
15944;SDS011;30172;48.832;8.732;2022-12-16T08:19:27;29.70;;;17.33;;
15944;SDS011;30172;48.832;8.732;2022-12-16T08:22:11;29.17;;;17.23;;
15944;SDS011;30172;48.832;8.732;2022-12-16T08:24:55;30.50;;;18.37;;
15944;SDS011;30172;48.832;8.732;2022-12-16T08:27:39;26.57;;;16.87;;
15944;SDS011;30172;48.832;8.732;2022-12-16T08:30:23;32.97;;;18.33;;
15944;SDS011;30172;48.832;8.732;2022-12-16T08:33:07;30.13;;;17.07;;
15944;SDS011;30172;48.832;8.732;2022-12-16T08:35:51;28.53;;;17.07;;
15944;SDS011;30172;48.832;8.732;2022-12-16T08:38:35;32.37;;;18.17;;
15944;SDS011;30172;48.832;8.732;2022-12-16T08:41:19;28.73;;;17.93;;
15944;SDS011;30172;48.832;8.732;2022-12-16T08:44:03;30.83;;;17.03;;
15944;SDS011;30172;48.832;8.732;2022-12-16T08:46:51;30.37;;;17.40;;
15944;SDS011;30172;48.832;8.732;2022-12-16T08:49:35;30.43;;;18.17;;
15944;SDS011;30172;48.832;8.732;2022-12-16T08:52:19;29.87;;;17.60;;
15944;SDS011;30172;48.832;8.732;2022-12-16T08:55:03;26.83;;;17.00;;
15944;SDS011;30172;48.832;8.732;2022-12-16T08:58:07;26.40;;;14.77;;
15944;SDS011;30172;48.832;8.732;2022-12-16T09:00:51;28.37;;;16.13;;
15944;SDS011;30172;48.832;8.732;2022-12-16T09:03:35;28.60;;;16.23;;
15944;SDS011;30172;48.832;8.732;2022-12-16T09:06:19;30.63;;;17.30;;
15944;SDS011;30172;48.832;8.732;2022-12-16T09:09:03;24.93;;;15.77;;
15944;SDS011;30172;48.832;8.732;2022-12-16T09:11:47;28.40;;;16.33;;
15944;SDS011;30172;48.832;8.732;2022-12-16T09:14:30;30.57;;;16.73;;
15944;SDS011;30172;48.832;8.732;2022-12-16T09:17:14;30.27;;;18.10;;
15944;SDS011;30172;48.832;8.732;2022-12-16T09:19:58;28.27;;;16.17;;
15944;SDS011;30172;48.832;8.732;2022-12-16T09:22:42;24.93;;;15.73;;
15944;SDS011;30172;48.832;8.732;2022-12-16T09:25:26;23.57;;;15.27;;
15944;SDS011;30172;48.832;8.732;2022-12-16T09:28:10;21.60;;;13.80;;
15944;SDS011;30172;48.832;8.732;2022-12-16T09:30:54;21.30;;;12.80;;
15944;SDS011;30172;48.832;8.732;2022-12-16T09:33:38;20.80;;;12.63;;
15944;SDS011;30172;48.832;8.732;2022-12-16T09:36:22;20.73;;;13.07;;
15944;SDS011;30172;48.832;8.732;2022-12-16T09:39:06;18.53;;;10.77;;
15944;SDS011;30172;48.832;8.732;2022-12-16T09:42:04;20.57;;;12.37;;
15944;SDS011;30172;48.832;8.732;2022-12-16T09:48:06;19.23;;;11.53;;
15944;SDS011;30172;48.832;8.732;2022-12-16T09:50:55;18.50;;;11.97;;
15944;SDS011;30172;48.832;8.732;2022-12-16T09:53:41;17.63;;;11.07;;
15944;SDS011;30172;48.832;8.732;2022-12-16T09:56:27;19.53;;;11.27;;
15944;SDS011;30172;48.832;8.732;2022-12-16T09:59:13;17.20;;;10.93;;
15944;SDS011;30172;48.832;8.732;2022-12-16T10:01:58;16.60;;;10.77;;
15944;SDS011;30172;48.832;8.732;2022-12-16T10:04:46;16.03;;;10.70;;
15944;SDS011;30172;48.832;8.732;2022-12-16T10:07:34;18.60;;;11.50;;
15944;SDS011;30172;48.832;8.732;2022-12-16T10:13:36;20.23;;;12.23;;
15944;SDS011;30172;48.832;8.732;2022-12-16T10:16:52;22.30;;;13.03;;
15944;SDS011;30172;48.832;8.732;2022-12-16T10:22:46;18.00;;;11.73;;
15944;SDS011;30172;48.832;8.732;2022-12-16T10:25:55;19.80;;;12.47;;
15944;SDS011;30172;48.832;8.732;2022-12-16T10:28:45;21.07;;;11.90;;
15944;SDS011;30172;48.832;8.732;2022-12-16T10:31:31;24.63;;;15.00;;
15944;SDS011;30172;48.832;8.732;2022-12-16T10:34:17;23.43;;;14.87;;
15944;SDS011;30172;48.832;8.732;2022-12-16T10:37:03;23.50;;;15.43;;
15944;SDS011;30172;48.832;8.732;2022-12-16T10:39:48;16.63;;;11.10;;
15944;SDS011;30172;48.832;8.732;2022-12-16T10:42:36;18.93;;;11.93;;
15944;SDS011;30172;48.832;8.732;2022-12-16T10:48:13;15.90;;;10.37;;
15944;SDS011;30172;48.832;8.732;2022-12-16T10:51:01;17.63;;;10.00;;
15944;SDS011;30172;48.832;8.732;2022-12-16T10:53:54;17.40;;;10.77;;
15944;SDS011;30172;48.832;8.732;2022-12-16T11:00:51;18.73;;;10.77;;
15944;SDS011;30172;48.832;8.732;2022-12-16T11:03:36;18.53;;;11.77;;
15944;SDS011;30172;48.832;8.732;2022-12-16T11:06:22;20.53;;;12.43;;
15944;SDS011;30172;48.832;8.732;2022-12-16T11:09:21;24.27;;;14.70;;
15944;SDS011;30172;48.832;8.732;2022-12-16T11:18:15;22.30;;;13.67;;
15944;SDS011;30172;48.832;8.732;2022-12-16T11:21:11;22.47;;;12.70;;
15944;SDS011;30172;48.832;8.732;2022-12-16T11:27:00;15.53;;;9.47;;
15944;SDS011;30172;48.832;8.732;2022-12-16T11:29:49;17.37;;;9.37;;
15944;SDS011;30172;48.832;8.732;2022-12-16T11:32:41;21.80;;;11.93;;
15944;SDS011;30172;48.832;8.732;2022-12-16T11:35:29;18.20;;;12.20;;
15944;SDS011;30172;48.832;8.732;2022-12-16T11:38:25;16.70;;;11.30;;
15944;SDS011;30172;48.832;8.732;2022-12-16T11:41:16;14.37;;;9.73;;
15944;SDS011;30172;48.832;8.732;2022-12-16T11:44:13;13.70;;;9.23;;
15944;SDS011;30172;48.832;8.732;2022-12-16T11:47:00;14.07;;;9.60;;
15944;SDS011;30172;48.832;8.732;2022-12-16T11:49:44;20.83;;;11.00;;
15944;SDS011;30172;48.832;8.732;2022-12-16T11:52:28;15.87;;;9.63;;
15944;SDS011;30172;48.832;8.732;2022-12-16T12:00:55;14.77;;;9.23;;
15944;SDS011;30172;48.832;8.732;2022-12-16T12:03:51;13.50;;;9.27;;
15944;SDS011;30172;48.832;8.732;2022-12-16T12:06:54;14.63;;;10.23;;
15944;SDS011;30172;48.832;8.732;2022-12-16T12:09:43;18.07;;;10.50;;
15944;SDS011;30172;48.832;8.732;2022-12-16T12:12:41;19.80;;;12.10;;
15944;SDS011;30172;48.832;8.732;2022-12-16T12:15:50;16.77;;;11.23;;
15944;SDS011;30172;48.832;8.732;2022-12-16T12:21:38;22.60;;;13.37;;
15944;SDS011;30172;48.832;8.732;2022-12-16T12:24:46;18.53;;;11.80;;
15944;SDS011;30172;48.832;8.732;2022-12-16T12:30:45;16.37;;;10.97;;
15944;SDS011;30172;48.832;8.732;2022-12-16T12:33:40;14.03;;;9.00;;
15944;SDS011;30172;48.832;8.732;2022-12-16T12:36:36;14.03;;;10.00;;
15944;SDS011;30172;48.832;8.732;2022-12-16T12:39:31;14.03;;;9.20;;
15944;SDS011;30172;48.832;8.732;2022-12-16T12:48:41;17.20;;;10.30;;
15944;SDS011;30172;48.832;8.732;2022-12-16T12:55:42;15.53;;;10.20;;
15944;SDS011;30172;48.832;8.732;2022-12-16T12:58:28;17.33;;;11.83;;
15944;SDS011;30172;48.832;8.732;2022-12-16T13:01:14;20.30;;;12.53;;
15944;SDS011;30172;48.832;8.732;2022-12-16T13:04:02;16.10;;;10.90;;
15944;SDS011;30172;48.832;8.732;2022-12-16T13:06:50;20.40;;;13.90;;
15944;SDS011;30172;48.832;8.732;2022-12-16T13:09:35;17.43;;;11.50;;
15944;SDS011;30172;48.832;8.732;2022-12-16T13:12:24;19.00;;;11.97;;
15944;SDS011;30172;48.832;8.732;2022-12-16T13:15:19;14.63;;;10.47;;
15944;SDS011;30172;48.832;8.732;2022-12-16T13:18:20;14.97;;;10.10;;
15944;SDS011;30172;48.832;8.732;2022-12-16T13:27:29;18.17;;;11.90;;
15944;SDS011;30172;48.832;8.732;2022-12-16T13:30:28;24.33;;;12.67;;
15944;SDS011;30172;48.832;8.732;2022-12-16T13:33:27;16.93;;;10.80;;
15944;SDS011;30172;48.832;8.732;2022-12-16T13:36:17;16.63;;;10.83;;
15944;SDS011;30172;48.832;8.732;2022-12-16T13:39:20;15.30;;;10.73;;
15944;SDS011;30172;48.832;8.732;2022-12-16T13:45:34;16.47;;;10.67;;
15944;SDS011;30172;48.832;8.732;2022-12-16T13:54:26;17.50;;;9.90;;
15944;SDS011;30172;48.832;8.732;2022-12-16T13:57:12;14.13;;;10.57;;
15944;SDS011;30172;48.832;8.732;2022-12-16T14:00:03;14.97;;;9.57;;
15944;SDS011;30172;48.832;8.732;2022-12-16T14:02:48;15.57;;;8.93;;
15944;SDS011;30172;48.832;8.732;2022-12-16T14:05:35;13.73;;;9.17;;
15944;SDS011;30172;48.832;8.732;2022-12-16T14:08:21;12.77;;;9.37;;
15944;SDS011;30172;48.832;8.732;2022-12-16T14:11:07;14.13;;;9.30;;
15944;SDS011;30172;48.832;8.732;2022-12-16T14:14:07;14.47;;;8.73;;
15944;SDS011;30172;48.832;8.732;2022-12-16T14:16:58;13.53;;;9.00;;
15944;SDS011;30172;48.832;8.732;2022-12-16T14:19:56;10.97;;;8.20;;
15944;SDS011;30172;48.832;8.732;2022-12-16T14:22:59;14.73;;;9.87;;
15944;SDS011;30172;48.832;8.732;2022-12-16T14:25:45;14.63;;;8.50;;
15944;SDS011;30172;48.832;8.732;2022-12-16T14:28:35;14.87;;;9.17;;
15944;SDS011;30172;48.832;8.732;2022-12-16T14:31:38;14.03;;;8.10;;
15944;SDS011;30172;48.832;8.732;2022-12-16T14:34:24;10.63;;;7.50;;
15944;SDS011;30172;48.832;8.732;2022-12-16T14:37:12;13.80;;;8.90;;
15944;SDS011;30172;48.832;8.732;2022-12-16T14:39:56;14.63;;;9.97;;
15944;SDS011;30172;48.832;8.732;2022-12-16T14:42:39;14.17;;;9.97;;
15944;SDS011;30172;48.832;8.732;2022-12-16T14:48:24;16.27;;;9.80;;
15944;SDS011;30172;48.832;8.732;2022-12-16T14:51:15;16.33;;;10.63;;
15944;SDS011;30172;48.832;8.732;2022-12-16T14:54:18;30.83;;;23.43;;
15944;SDS011;30172;48.832;8.732;2022-12-16T14:57:19;25.07;;;16.83;;
15944;SDS011;30172;48.832;8.732;2022-12-16T15:02:50;53.80;;;38.70;;
15944;SDS011;30172;48.832;8.732;2022-12-16T15:05:36;22.80;;;16.93;;
15944;SDS011;30172;48.832;8.732;2022-12-16T15:08:21;22.30;;;14.43;;
15944;SDS011;30172;48.832;8.732;2022-12-16T15:11:06;19.47;;;11.40;;
15944;SDS011;30172;48.832;8.732;2022-12-16T15:13:53;23.70;;;13.00;;
15944;SDS011;30172;48.832;8.732;2022-12-16T15:16:40;16.70;;;10.90;;
15944;SDS011;30172;48.832;8.732;2022-12-16T15:19:24;18.70;;;11.03;;
15944;SDS011;30172;48.832;8.732;2022-12-16T15:22:11;20.23;;;11.93;;
15944;SDS011;30172;48.832;8.732;2022-12-16T15:24:56;18.53;;;10.37;;
15944;SDS011;30172;48.832;8.732;2022-12-16T15:27:40;14.53;;;9.70;;
15944;SDS011;30172;48.832;8.732;2022-12-16T15:30:44;13.40;;;9.03;;
15944;SDS011;30172;48.832;8.732;2022-12-16T15:33:30;16.80;;;9.50;;
15944;SDS011;30172;48.832;8.732;2022-12-16T15:36:26;15.17;;;9.80;;
15944;SDS011;30172;48.832;8.732;2022-12-16T15:39:24;11.70;;;7.53;;
15944;SDS011;30172;48.832;8.732;2022-12-16T15:45:17;14.33;;;9.33;;
15944;SDS011;30172;48.832;8.732;2022-12-16T15:48:11;17.87;;;10.40;;
15944;SDS011;30172;48.832;8.732;2022-12-16T15:50:56;13.30;;;8.70;;
15944;SDS011;30172;48.832;8.732;2022-12-16T15:53:40;15.30;;;10.00;;
15944;SDS011;30172;48.832;8.732;2022-12-16T15:56:41;19.33;;;11.43;;
15944;SDS011;30172;48.832;8.732;2022-12-16T15:59:30;17.03;;;11.70;;
15944;SDS011;30172;48.832;8.732;2022-12-16T16:02:19;12.50;;;8.63;;
15944;SDS011;30172;48.832;8.732;2022-12-16T16:08:05;26.23;;;16.83;;
15944;SDS011;30172;48.832;8.732;2022-12-16T16:10:49;27.07;;;17.20;;
15944;SDS011;30172;48.832;8.732;2022-12-16T16:13:33;17.70;;;11.70;;
15944;SDS011;30172;48.832;8.732;2022-12-16T16:16:17;103.87;;;52.53;;
15944;SDS011;30172;48.832;8.732;2022-12-16T16:19:02;91.03;;;50.37;;
15944;SDS011;30172;48.832;8.732;2022-12-16T16:21:46;37.97;;;24.83;;
15944;SDS011;30172;48.832;8.732;2022-12-16T16:24:30;39.13;;;25.43;;
15944;SDS011;30172;48.832;8.732;2022-12-16T16:27:14;25.77;;;16.40;;
15944;SDS011;30172;48.832;8.732;2022-12-16T16:29:59;25.80;;;15.97;;
15944;SDS011;30172;48.832;8.732;2022-12-16T16:32:43;26.20;;;16.67;;
15944;SDS011;30172;48.832;8.732;2022-12-16T16:35:34;22.60;;;14.70;;
15944;SDS011;30172;48.832;8.732;2022-12-16T16:38:18;23.80;;;15.83;;
15944;SDS011;30172;48.832;8.732;2022-12-16T16:41:02;27.07;;;16.43;;
15944;SDS011;30172;48.832;8.732;2022-12-16T16:43:46;23.80;;;14.60;;
15944;SDS011;30172;48.832;8.732;2022-12-16T16:46:37;24.93;;;16.00;;
15944;SDS011;30172;48.832;8.732;2022-12-16T16:49:36;23.10;;;14.60;;
15944;SDS011;30172;48.832;8.732;2022-12-16T16:52:23;19.13;;;13.97;;
15944;SDS011;30172;48.832;8.732;2022-12-16T16:55:18;30.17;;;18.13;;
15944;SDS011;30172;48.832;8.732;2022-12-16T16:58:05;44.67;;;28.33;;
15944;SDS011;30172;48.832;8.732;2022-12-16T17:00:53;47.23;;;24.57;;
15944;SDS011;30172;48.832;8.732;2022-12-16T17:03:37;89.00;;;43.47;;
15944;SDS011;30172;48.832;8.732;2022-12-16T17:06:21;36.67;;;23.87;;
15944;SDS011;30172;48.832;8.732;2022-12-16T17:09:25;23.77;;;16.60;;
15944;SDS011;30172;48.832;8.732;2022-12-16T17:12:22;28.27;;;17.40;;
15944;SDS011;30172;48.832;8.732;2022-12-16T17:15:15;30.03;;;17.10;;
15944;SDS011;30172;48.832;8.732;2022-12-16T17:18:12;46.23;;;22.70;;
15944;SDS011;30172;48.832;8.732;2022-12-16T17:20:56;31.60;;;18.10;;
15944;SDS011;30172;48.832;8.732;2022-12-16T17:23:40;35.27;;;18.63;;
15944;SDS011;30172;48.832;8.732;2022-12-16T17:26:28;27.37;;;17.33;;
15944;SDS011;30172;48.832;8.732;2022-12-16T17:29:22;26.90;;;17.97;;
15944;SDS011;30172;48.832;8.732;2022-12-16T17:32:07;26.03;;;15.90;;